Nearby METAR Reports

 

LEVT - Vitoria, Spain
Distance from station: O 10km
Actualización: 11/07/2020 02:30
Muy nuboso
Muy nuboso
 Viento del varies
Viento: varies 4 km/h
Temperatura: 15°C
Rocío: 13°C
Humedad: 88%
Barómetro: 1023 hPa
Clouds: Muy nuboso
Visibility: 10 km
Cloud details: Few Clouds 457 m
Muy nuboso 975 m
2020/07/11 00:30 LEVT 110030Z VRB02KT 9999 FEW015 BKN032 15/13 Q1023
LELO - Logrono/Agoncill, Spain
Distance from station: SSE 51km
Actualización: 11/07/2020 02:30
Cubierto
Cubierto
 Viento del O
Viento: O 13 km/h
Temperatura: 18°C
Rocío: 13°C
Humedad: 73%
Barómetro: 1022 hPa
Clouds: Cubierto
Visibility: 10 km
Cloud details: Cubierto 975 m
2020/07/11 00:30 LELO 110030Z AUTO 28007KT 250V320 9999 OVC032 18/13 Q1022
LEBB - Bilbao/Sondica, Spain
Distance from station: NNO 54km
Actualización: 11/07/2020 02:30
Muy nuboso
Muy nuboso
 Viento del ONO
Viento: ONO 4 km/h
Temperatura: 18°C
Rocío: 16°C
Humedad: 88%
Barómetro: 1022 hPa
Clouds: Muy nuboso
Visibility: 10 km
Cloud details: Muy nuboso 1402 m
2020/07/11 00:30 LEBB 110030Z AUTO 29002KT 9999 BKN046 18/16 Q1022
 
LEPP - Pamplona/Noain, Spain
Distance from station: E 78km
Actualización: 11/07/2020 02:30
Cubierto
Cubierto
 Viento del NO
Viento: NO 15 km/h
Temperatura: 17°C
Rocío: 13°C
Humedad: 77%
Barómetro: 1022 hPa
Clouds: Cubierto
Visibility: 10 km
Cloud details: Cubierto 792 m
2020/07/11 00:30 LEPP 110030Z AUTO 31008KT 9999 OVC026 17/13 Q1022
LESO - San Sebastian/Fu, Spain
Distance from station: NE 85km
Actualización: 11/07/2020 02:30
Cubierto
Cubierto
 Viento del varies
Viento: varies 4 km/h
Temperatura: 20°C
Rocío: 16°C
Humedad: 78%
Barómetro: 1022 hPa
Clouds: Cubierto
Visibility: 10 km
Cloud details: Few Clouds 853 m
Parcialmente nuboso 1128 m
Cubierto 1433 m
2020/07/11 00:30 LESO 110030Z AUTO VRB02KT 9999 FEW028 SCT037 OVC047 20/16 Q1022
LEBG - Burgos/Villafria, Spain
Distance from station: SO 100km
Actualización: 11/07/2020 02:30
Cubierto
Cubierto
 Viento del NE
Viento: NE 15 km/h
Temperatura: 14°C
Rocío: 11°C
Humedad: 82%
Barómetro: 1022 hPa
Clouds: Cubierto
Visibility: 10 km
Cloud details: Cubierto 366 m
2020/07/11 00:30 LEBG 110030Z AUTO 05008KT 360V090 9999 OVC012 14/11 Q1022
 
LFBZ - Biarritz/Anglet, France
Distance from station: NE 111km
Actualización: 11/07/2020 02:30
Muy nuboso
Muy nuboso
 Viento del NO
Viento: NO 7 km/h
Temperatura: 19°C
Rocío: 15°C
Humedad: 78%
Barómetro: 1022 hPa
Clouds: Muy nuboso
Visibility: 10 km
Cloud details: Parcialmente nuboso 671 m
Muy nuboso 823 m
Muy nuboso 1036 m
2020/07/11 00:30 LFBZ 110030Z AUTO 32004KT 290V350 9999 SCT022 BKN027 BKN034 19/15 Q1022 NOSIG
LEXJ - Santander/Paraya, Spain
Distance from station: ONO 117km
Actualización: 11/07/2020 02:30
Muy nuboso
Muy nuboso
 Viento del SO
Viento: SO 7 km/h
Temperatura: 18°C
Rocío: 15°C
Humedad: 83%
Barómetro: 1023 hPa
Clouds: Muy nuboso
Visibility: 8 km
Cloud details: Few Clouds 975 m
Muy nuboso 1433 m
2020/07/11 00:30 LEXJ 110030Z AUTO 22004KT 8000 FEW032 BKN047 18/15 Q1023